createdAt,value
2016-06-28T00:00:09.114Z,15.7
2016-06-28T00:00:19.113Z,15.7
2016-06-28T00:00:29.158Z,15.7
2016-06-28T00:00:39.122Z,15.7
2016-06-28T00:00:49.140Z,15.7
2016-06-28T00:00:59.129Z,15.7
2016-06-28T00:01:09.160Z,15.8
2016-06-28T00:01:19.147Z,15.7
2016-06-28T00:01:29.154Z,15.7
2016-06-28T00:01:39.166Z,15.7
2016-06-28T00:01:49.173Z,15.7
2016-06-28T00:01:59.171Z,15.7
2016-06-28T00:02:09.170Z,15.8
2016-06-28T00:02:19.183Z,15.8
2016-06-28T00:02:29.194Z,15.7
2016-06-28T00:02:39.204Z,15.7
2016-06-28T00:02:49.206Z,15.7
2016-06-28T00:02:59.222Z,15.7
2016-06-28T00:03:09.222Z,15.7
2016-06-28T00:03:19.220Z,15.7
2016-06-28T00:03:29.231Z,15.7
2016-06-28T00:03:39.249Z,15.7
2016-06-28T00:03:49.242Z,15.7
2016-06-28T00:03:59.240Z,15.7
2016-06-28T00:04:09.254Z,15.7
2016-06-28T00:04:19.255Z,15.7
2016-06-28T00:04:29.264Z,15.6
2016-06-28T00:04:39.271Z,15.6
2016-06-28T00:04:49.283Z,15.6
2016-06-28T00:04:59.283Z,15.6
2016-06-28T00:05:09.295Z,15.7
2016-06-28T00:05:19.294Z,15.6
2016-06-28T00:05:29.303Z,15.6
2016-06-28T00:05:39.369Z,15.7
2016-06-28T00:05:49.312Z,15.7
2016-06-28T00:05:59.322Z,15.6
2016-06-28T00:06:09.331Z,15.6
2016-06-28T00:06:19.387Z,15.6
2016-06-28T00:06:29.339Z,15.7
2016-06-28T00:06:39.346Z,15.6
2016-06-28T00:06:49.349Z,15.7
2016-06-28T00:06:59.410Z,15.7
2016-06-28T00:07:09.378Z,15.6
2016-06-28T00:07:19.365Z,15.7
2016-06-28T00:07:29.377Z,15.7
2016-06-28T00:07:39.405Z,15.7
2016-06-28T00:07:49.391Z,15.7
2016-06-28T00:07:59.397Z,15.7
2016-06-28T00:08:09.397Z,15.7
2016-06-28T00:08:19.462Z,15.8
2016-06-28T00:08:29.414Z,15.7
2016-06-28T00:08:39.416Z,15.7
2016-06-28T00:08:49.430Z,15.7
2016-06-28T00:08:59.439Z,15.7
2016-06-28T00:09:09.435Z,15.7
2016-06-28T00:09:19.444Z,15.6
2016-06-28T00:09:29.458Z,15.6
2016-06-28T00:09:39.465Z,15.7
2016-06-28T00:09:49.462Z,15.6
2016-06-28T00:09:59.482Z,15.6
2016-06-28T00:10:09.477Z,15.6
2016-06-28T00:10:19.480Z,15.6
2016-06-28T00:10:29.503Z,15.5
2016-06-28T00:10:39.493Z,15.6
2016-06-28T00:10:49.502Z,15.5
2016-06-28T00:10:59.518Z,15.6
2016-06-28T00:11:09.513Z,15.5
2016-06-28T00:11:19.516Z,15.6
2016-06-28T00:11:29.525Z,15.6
2016-06-28T00:11:39.523Z,15.6
2016-06-28T00:11:49.551Z,15.6
2016-06-28T00:11:59.547Z,15.6
2016-06-28T00:12:09.552Z,15.6
2016-06-28T00:12:19.552Z,15.5
2016-06-28T00:12:29.565Z,15.5
2016-06-28T00:12:39.598Z,15.6
2016-06-28T00:12:49.581Z,15.4
2016-06-28T00:12:59.578Z,15.5
2016-06-28T00:13:09.586Z,15.5
2016-06-28T00:13:19.593Z,15.5
2016-06-28T00:13:29.606Z,15.5
2016-06-28T00:13:39.607Z,15.5
2016-06-28T00:13:49.611Z,15.4
2016-06-28T00:13:59.620Z,15.5
2016-06-28T00:14:09.626Z,15.5
2016-06-28T00:14:19.633Z,15.4
2016-06-28T00:14:29.635Z,15.4
2016-06-28T00:14:39.646Z,15.5
2016-06-28T00:14:49.663Z,15.4
2016-06-28T00:14:59.654Z,15.4
2016-06-28T00:15:09.659Z,15.4
2016-06-28T00:15:19.662Z,15.5
2016-06-28T00:15:29.675Z,15.5
2016-06-28T00:15:39.677Z,15.4
2016-06-28T00:15:49.694Z,15.5
2016-06-28T00:15:59.696Z,15.5
2016-06-28T00:16:09.715Z,15.4
2016-06-28T00:16:19.703Z,15.4
2016-06-28T00:16:29.714Z,15.4
2016-06-28T00:16:39.719Z,15.5
2016-06-28T00:16:49.731Z,15.5
2016-06-28T00:16:59.727Z,15.5
2016-06-28T00:17:09.734Z,15.5
2016-06-28T00:17:19.753Z,15.5
2016-06-28T00:17:29.750Z,15.5
2016-06-28T00:17:39.750Z,15.4
2016-06-28T00:17:49.755Z,15.4
2016-06-28T00:17:59.764Z,15.5
2016-06-28T00:18:09.772Z,15.4
2016-06-28T00:18:19.779Z,15.5
2016-06-28T00:18:29.789Z,15.4
2016-06-28T00:18:39.795Z,15.5
2016-06-28T00:18:49.795Z,15.4
2016-06-28T00:18:59.807Z,15.4
2016-06-28T00:19:09.810Z,15.5
2016-06-28T00:19:19.815Z,15.5
2016-06-28T00:19:29.825Z,15.6
2016-06-28T00:19:39.829Z,15.5
2016-06-28T00:19:49.835Z,15.5
2016-06-28T00:19:59.841Z,15.5
2016-06-28T00:20:09.847Z,15.4
2016-06-28T00:20:19.851Z,15.5
2016-06-28T00:20:29.857Z,15.5
2016-06-28T00:20:39.863Z,15.5
2016-06-28T00:20:49.897Z,15.4
2016-06-28T00:20:59.883Z,15.5
2016-06-28T00:21:09.881Z,15.4
2016-06-28T00:21:19.892Z,15.4
2016-06-28T00:21:29.900Z,15.4
2016-06-28T00:21:39.905Z,15.5
2016-06-28T00:21:49.913Z,15.4
2016-06-28T00:21:59.919Z,15.5
2016-06-28T00:22:09.919Z,15.5
2016-06-28T00:22:19.930Z,15.4
2016-06-28T00:22:29.929Z,15.4
2016-06-28T00:22:39.942Z,15.4
2016-06-28T00:22:49.947Z,15.5
2016-06-28T00:22:59.955Z,15.4
2016-06-28T00:23:09.968Z,15.4
2016-06-28T00:23:19.964Z,15.4
2016-06-28T00:23:29.971Z,15.3
2016-06-28T00:23:39.974Z,15.4
2016-06-28T00:23:49.982Z,15.4
2016-06-28T00:23:59.991Z,15.3
2016-06-28T00:24:09.999Z,15.4
2016-06-28T00:24:20.002Z,15.3
2016-06-28T00:24:30.008Z,15.4
2016-06-28T00:24:40.007Z,15.3
2016-06-28T00:24:50.034Z,15.4
2016-06-28T00:25:00.029Z,15.5
2016-06-28T00:25:10.039Z,15.3
2016-06-28T00:25:20.040Z,15.4
2016-06-28T00:25:30.042Z,15.3
2016-06-28T00:25:40.048Z,15.4
2016-06-28T00:25:50.059Z,15.5
2016-06-28T00:26:00.066Z,15.4
2016-06-28T00:26:10.068Z,15.3
2016-06-28T00:26:20.078Z,15.4
2016-06-28T00:26:30.083Z,15.3
2016-06-28T00:26:40.093Z,15.3
2016-06-28T00:26:50.096Z,15.4
2016-06-28T00:27:00.110Z,15.4
2016-06-28T00:27:10.122Z,15.3
2016-06-28T00:27:20.132Z,15.4
2016-06-28T00:27:30.135Z,15.5
2016-06-28T00:27:40.122Z,15.4
2016-06-28T00:27:50.135Z,15.5
2016-06-28T00:28:00.140Z,15.5
2016-06-28T00:28:10.140Z,15.4
2016-06-28T00:28:20.147Z,15.4
2016-06-28T00:28:30.166Z,15.5
2016-06-28T00:28:40.156Z,15.5
2016-06-28T00:28:50.166Z,15.4
2016-06-28T00:29:00.172Z,15.5
2016-06-28T00:29:10.179Z,15.5
2016-06-28T00:29:20.185Z,15.6
2016-06-28T00:29:30.195Z,15.6
2016-06-28T00:29:40.197Z,15.4
2016-06-28T00:29:50.205Z,15.4
2016-06-28T00:30:00.220Z,15.4
2016-06-28T00:30:10.215Z,15.5
2016-06-28T00:30:20.219Z,15.5
2016-06-28T00:30:30.231Z,15.5
2016-06-28T00:30:40.237Z,15.4
2016-06-28T00:30:50.243Z,15.6
2016-06-28T00:31:00.249Z,15.6
2016-06-28T00:31:10.254Z,15.4
2016-06-28T00:31:20.258Z,15.5
2016-06-28T00:31:30.287Z,15.5
2016-06-28T00:31:40.268Z,15.4
2016-06-28T00:31:50.299Z,15.4
2016-06-28T00:32:00.290Z,15.4
2016-06-28T00:32:10.291Z,15.4
2016-06-28T00:32:20.303Z,15.3
2016-06-28T00:32:30.302Z,15.4
2016-06-28T00:32:40.313Z,15.5
2016-06-28T00:32:50.323Z,15.4
2016-06-28T00:33:00.323Z,15.5
2016-06-28T00:33:10.336Z,15.5
2016-06-28T00:33:20.345Z,15.5
2016-06-28T00:33:30.346Z,15.5
2016-06-28T00:33:40.346Z,15.4
2016-06-28T00:33:50.354Z,15.6
2016-06-28T00:34:00.371Z,15.5
2016-06-28T00:34:10.368Z,15.5
2016-06-28T00:34:20.370Z,15.5
2016-06-28T00:34:30.382Z,15.6
2016-06-28T00:34:40.384Z,15.5
2016-06-28T00:34:50.386Z,15.5
2016-06-28T00:35:00.400Z,15.6
2016-06-28T00:35:10.403Z,15.5
2016-06-28T00:35:20.408Z,15.6
2016-06-28T00:35:30.419Z,15.6
2016-06-28T00:35:40.420Z,15.6
2016-06-28T00:35:50.437Z,15.6
2016-06-28T00:36:00.433Z,15.5
2016-06-28T00:36:10.440Z,15.6
2016-06-28T00:36:20.449Z,15.6
2016-06-28T00:36:30.453Z,15.6
2016-06-28T00:36:40.463Z,15.5
2016-06-28T00:36:50.462Z,15.6
2016-06-28T00:37:00.483Z,15.5
2016-06-28T00:37:10.479Z,15.5
2016-06-28T00:37:20.485Z,15.6
2016-06-28T00:37:30.489Z,15.6
2016-06-28T00:37:40.501Z,15.5
2016-06-28T00:37:50.502Z,15.5
2016-06-28T00:38:00.504Z,15.3
2016-06-28T00:38:10.515Z,15.5
2016-06-28T00:38:20.521Z,15.5
2016-06-28T00:38:30.530Z,15.5
2016-06-28T00:38:40.537Z,15.5
2016-06-28T00:38:50.537Z,15.4
2016-06-28T00:39:00.555Z,15.4
2016-06-28T00:39:10.558Z,15.3
2016-06-28T00:39:20.564Z,15.4
2016-06-28T00:39:30.582Z,15.3
2016-06-28T00:39:40.575Z,15.4
2016-06-28T00:39:50.577Z,15.4
2016-06-28T00:40:00.591Z,15.4
2016-06-28T00:40:10.594Z,15.4
2016-06-28T00:40:20.614Z,15.4
2016-06-28T00:40:30.598Z,15.5
2016-06-28T00:40:40.605Z,15.3
2016-06-28T00:40:50.630Z,15.5
2016-06-28T00:41:00.623Z,15.5
2016-06-28T00:41:10.624Z,15.5
2016-06-28T00:41:20.642Z,15.4
2016-06-28T00:41:30.633Z,15.5
2016-06-28T00:41:40.647Z,15.6
2016-06-28T00:41:50.650Z,15.6
2016-06-28T00:42:00.658Z,15.5
2016-06-28T00:42:10.755Z,15.5
2016-06-28T00:42:20.686Z,15.6
2016-06-28T00:42:30.672Z,15.6
2016-06-28T00:42:40.690Z,15.5
2016-06-28T00:42:50.707Z,15.5
2016-06-28T00:43:00.691Z,15.4
2016-06-28T00:43:10.697Z,15.4
2016-06-28T00:43:20.705Z,15.5
2016-06-28T00:43:30.792Z,15.5
2016-06-28T00:43:40.716Z,15.5
2016-06-28T00:43:50.726Z,15.5
2016-06-28T00:44:00.735Z,15.5
2016-06-28T00:44:10.739Z,15.5
2016-06-28T00:44:20.746Z,15.5
2016-06-28T00:44:30.748Z,15.5
2016-06-28T00:44:40.758Z,15.5
2016-06-28T00:44:50.776Z,15.5
2016-06-28T00:45:00.767Z,15.5
2016-06-28T00:45:10.770Z,15.6
2016-06-28T00:45:20.782Z,15.5
2016-06-28T00:45:30.793Z,15.5
2016-06-28T00:45:40.796Z,15.4
2016-06-28T00:45:50.815Z,15.4
2016-06-28T00:46:00.803Z,15.4
2016-06-28T00:46:10.814Z,15.5
2016-06-28T00:46:20.814Z,15.5
2016-06-28T00:46:30.832Z,15.4
2016-06-28T00:46:40.833Z,15.5
2016-06-28T00:46:50.855Z,15.5
2016-06-28T00:47:00.842Z,15.5
2016-06-28T00:47:10.850Z,15.4
2016-06-28T00:47:20.865Z,15.4
2016-06-28T00:47:30.858Z,15.4
2016-06-28T00:47:40.864Z,15.5
2016-06-28T00:47:50.871Z,15.4
2016-06-28T00:48:00.881Z,15.4
2016-06-28T00:48:10.886Z,15.4
2016-06-28T00:48:20.895Z,15.5
2016-06-28T00:48:30.899Z,15.5
2016-06-28T00:48:40.962Z,15.4
2016-06-28T00:48:50.907Z,15.6
2016-06-28T00:49:00.912Z,15.6
2016-06-28T00:49:10.926Z,15.5
2016-06-28T00:49:20.978Z,15.6
2016-06-28T00:49:30.935Z,15.6
2016-06-28T00:49:40.944Z,15.6
2016-06-28T00:49:50.943Z,15.6
2016-06-28T00:50:00.962Z,15.7
2016-06-28T00:50:10.987Z,15.7
2016-06-28T00:50:20.968Z,15.6
2016-06-28T00:50:30.980Z,15.6
2016-06-28T00:50:40.996Z,15.6
2016-06-28T00:50:50.986Z,15.6
2016-06-28T00:51:01.010Z,15.6
2016-06-28T00:51:11.025Z,15.7
2016-06-28T00:51:21.012Z,15.6
2016-06-28T00:51:31.011Z,15.6
2016-06-28T00:51:41.019Z,15.6
2016-06-28T00:51:51.013Z,15.6
2016-06-28T00:52:01.029Z,15.6
2016-06-28T00:52:11.037Z,15.5
2016-06-28T00:52:21.051Z,15.6
2016-06-28T00:52:31.045Z,15.4
2016-06-28T00:52:41.060Z,15.4
2016-06-28T00:52:51.063Z,15.5
2016-06-28T00:53:01.059Z,15.4
2016-06-28T00:53:11.066Z,15.4
2016-06-28T00:53:21.095Z,15.5
2016-06-28T00:53:31.082Z,15.5
2016-06-28T00:53:41.087Z,15.5
2016-06-28T00:53:51.095Z,15.5
2016-06-28T00:54:01.102Z,15.4
2016-06-28T00:54:11.103Z,15.4
2016-06-28T00:54:21.110Z,15.5
2016-06-28T00:54:31.122Z,15.4
2016-06-28T00:54:41.127Z,15.5
2016-06-28T00:54:51.144Z,15.5
2016-06-28T00:55:01.135Z,15.4
2016-06-28T00:55:11.190Z,15.5
2016-06-28T00:55:21.180Z,15.5
2016-06-28T00:55:31.188Z,15.5
2016-06-28T00:55:41.158Z,15.5
2016-06-28T00:55:51.191Z,15.5
2016-06-28T00:56:01.175Z,15.5
2016-06-28T00:56:11.179Z,15.4
2016-06-28T00:56:21.189Z,15.5
2016-06-28T00:56:31.269Z,15.4
2016-06-28T00:56:41.203Z,15.5
2016-06-28T00:56:51.220Z,15.5
2016-06-28T00:57:01.220Z,15.4
2016-06-28T00:57:11.224Z,15.5
2016-06-28T00:57:21.229Z,15.3
2016-06-28T00:57:31.234Z,15.4
2016-06-28T00:57:41.242Z,15.4
2016-06-28T00:57:51.255Z,15.4
2016-06-28T00:58:01.252Z,15.4
2016-06-28T00:58:11.280Z,15.3
2016-06-28T00:58:21.262Z,15.4
2016-06-28T00:58:31.272Z,15.4
2016-06-28T00:58:41.276Z,15.3
2016-06-28T00:58:51.280Z,15.4
2016-06-28T00:59:01.285Z,15.4
2016-06-28T00:59:11.297Z,15.4
2016-06-28T00:59:21.294Z,15.3
2016-06-28T00:59:31.302Z,15.3
2016-06-28T00:59:41.306Z,15.4
2016-06-28T00:59:51.320Z,15.4
2016-06-28T01:00:01.327Z,15.4
2016-06-28T01:00:11.332Z,15.5
2016-06-28T01:00:21.338Z,15.5
2016-06-28T01:00:31.364Z,15.5
2016-06-28T01:00:41.353Z,15.5
2016-06-28T01:00:51.369Z,15.5
2016-06-28T01:01:01.361Z,15.4
2016-06-28T01:01:11.366Z,15.3
2016-06-28T01:01:21.371Z,15.4
2016-06-28T01:01:31.382Z,15.3
2016-06-28T01:01:41.390Z,15.4
2016-06-28T01:01:51.393Z,15.4
2016-06-28T01:02:01.404Z,15.4
2016-06-28T01:02:11.411Z,15.5
2016-06-28T01:02:21.445Z,15.4
2016-06-28T01:02:31.420Z,15.3
2016-06-28T01:02:41.428Z,15.3
2016-06-28T01:02:51.436Z,15.3
2016-06-28T01:03:01.494Z,15.3
2016-06-28T01:03:11.445Z,15.3
2016-06-28T01:03:21.462Z,15.4
2016-06-28T01:03:31.471Z,15.3
2016-06-28T01:03:41.481Z,15.3
2016-06-28T01:03:51.463Z,15.3
2016-06-28T01:04:01.471Z,15.4
2016-06-28T01:04:11.483Z,15.3
2016-06-28T01:04:21.529Z,15.4
2016-06-28T01:04:31.497Z,15.4
2016-06-28T01:04:41.498Z,15.3
2016-06-28T01:04:51.523Z,15.3
2016-06-28T01:05:01.573Z,15.4
2016-06-28T01:05:11.524Z,15.4
2016-06-28T01:05:21.531Z,15.3
2016-06-28T01:05:31.532Z,15.4
2016-06-28T01:05:41.542Z,15.4
2016-06-28T01:05:51.549Z,15.4
2016-06-28T01:06:01.550Z,15.4
2016-06-28T01:06:11.559Z,15.3
2016-06-28T01:06:21.561Z,15.5
2016-06-28T01:06:31.566Z,15.4
2016-06-28T01:06:41.577Z,15.4
2016-06-28T01:06:51.578Z,15.4
2016-06-28T01:07:01.600Z,15.5
2016-06-28T01:07:11.594Z,15.4
2016-06-28T01:07:21.597Z,15.5
2016-06-28T01:07:31.624Z,15.4
2016-06-28T01:07:41.612Z,15.4
2016-06-28T01:07:51.622Z,15.4
2016-06-28T01:08:01.624Z,15.4
2016-06-28T01:08:11.626Z,15.3
2016-06-28T01:08:21.633Z,15.3
2016-06-28T01:08:31.641Z,15.4
2016-06-28T01:08:41.640Z,15.3
2016-06-28T01:08:51.677Z,15.3
2016-06-28T01:09:01.660Z,15.3
2016-06-28T01:09:11.662Z,15.3
2016-06-28T01:09:21.674Z,15.4
2016-06-28T01:09:31.674Z,15.4
2016-06-28T01:09:41.683Z,15.3
2016-06-28T01:09:51.691Z,15.4
2016-06-28T01:10:01.694Z,15.4
2016-06-28T01:10:11.726Z,15.3
2016-06-28T01:10:21.707Z,15.3
2016-06-28T01:10:31.726Z,15.4
2016-06-28T01:10:41.726Z,15.3
2016-06-28T01:10:51.727Z,15.4
2016-06-28T01:11:01.732Z,15.3
2016-06-28T01:11:11.743Z,15.3
2016-06-28T01:11:21.757Z,15.3
2016-06-28T01:11:31.753Z,15.3
2016-06-28T01:11:41.771Z,15.3
2016-06-28T01:11:51.763Z,15.3
2016-06-28T01:12:01.775Z,15.3
2016-06-28T01:12:11.780Z,15.3
2016-06-28T01:12:21.787Z,15.3
2016-06-28T01:12:31.791Z,15.3
2016-06-28T01:12:41.810Z,15.3
2016-06-28T01:12:51.821Z,15.3
2016-06-28T01:13:01.826Z,15.3
2016-06-28T01:13:11.823Z,15.3
2016-06-28T01:13:21.824Z,15.3
2016-06-28T01:13:31.823Z,15.3
2016-06-28T01:13:41.839Z,15.3
2016-06-28T01:13:51.839Z,15.3
2016-06-28T01:14:01.852Z,15.4
2016-06-28T01:14:11.848Z,15.3
2016-06-28T01:14:21.861Z,15.4
2016-06-28T01:14:31.909Z,15.4
2016-06-28T01:14:41.870Z,15.3
2016-06-28T01:14:51.926Z,15.4
2016-06-28T01:15:01.901Z,15.4
2016-06-28T01:15:11.887Z,15.4
2016-06-28T01:15:21.888Z,15.4
2016-06-28T01:15:31.922Z,15.3
2016-06-28T01:15:41.902Z,15.4
2016-06-28T01:15:51.913Z,15.3
2016-06-28T01:16:01.922Z,15.3
2016-06-28T01:16:11.922Z,15.4
2016-06-28T01:16:21.938Z,15.4
2016-06-28T01:16:31.941Z,15.3
2016-06-28T01:16:41.966Z,15.4
2016-06-28T01:16:51.955Z,15.4
2016-06-28T01:17:01.972Z,15.4
2016-06-28T01:17:11.958Z,15.3
2016-06-28T01:17:21.968Z,15.3
2016-06-28T01:17:31.975Z,15.3
2016-06-28T01:17:41.979Z,15.4
2016-06-28T01:17:51.984Z,15.4
2016-06-28T01:18:02.013Z,15.3
2016-06-28T01:18:11.997Z,15.3
2016-06-28T01:18:22.010Z,15.3
2016-06-28T01:18:32.015Z,15.2
2016-06-28T01:18:42.023Z,15.2
2016-06-28T01:18:52.034Z,15.3
2016-06-28T01:19:02.029Z,15.3
2016-06-28T01:19:12.036Z,15.2
2016-06-28T01:19:22.037Z,15.3
2016-06-28T01:19:32.069Z,15.2
2016-06-28T01:19:42.046Z,15.3
2016-06-28T01:19:52.083Z,15.3
2016-06-28T01:20:02.068Z,15.3
2016-06-28T01:20:12.074Z,15.3
2016-06-28T01:20:22.101Z,15.3
2016-06-28T01:20:32.088Z,15.3
2016-06-28T01:20:42.096Z,15.3
2016-06-28T01:20:52.093Z,15.3
2016-06-28T01:21:02.103Z,15.2
2016-06-28T01:21:12.101Z,15.3
2016-06-28T01:21:22.120Z,15.3
2016-06-28T01:21:32.121Z,15.3
2016-06-28T01:21:42.125Z,15.3
2016-06-28T01:21:52.134Z,15.2
2016-06-28T01:22:02.140Z,15.3
2016-06-28T01:22:12.148Z,15.3
2016-06-28T01:22:22.154Z,15.2
2016-06-28T01:22:32.163Z,15.3
2016-06-28T01:22:42.182Z,15.3
2016-06-28T01:22:52.180Z,15.4
2016-06-28T01:23:02.168Z,15.4
2016-06-28T01:23:12.178Z,15.4
2016-06-28T01:23:22.189Z,15.3
2016-06-28T01:23:32.194Z,15.3
2016-06-28T01:23:42.194Z,15.5
2016-06-28T01:23:52.210Z,15.3
2016-06-28T01:24:02.216Z,15.3
2016-06-28T01:24:12.220Z,15.3
2016-06-28T01:24:22.227Z,15.2
2016-06-28T01:24:32.235Z,15.2
2016-06-28T01:24:42.239Z,15.2
2016-06-28T01:24:52.245Z,15.2
2016-06-28T01:25:02.248Z,15.2
2016-06-28T01:25:12.257Z,15.2
2016-06-28T01:25:22.269Z,15.2
2016-06-28T01:25:32.265Z,15.2
2016-06-28T01:25:42.278Z,15.2
2016-06-28T01:25:52.278Z,15.2
2016-06-28T01:26:02.285Z,15.2
2016-06-28T01:26:12.295Z,15.1
2016-06-28T01:26:22.302Z,15.2
2016-06-28T01:26:32.304Z,15.2
2016-06-28T01:26:42.314Z,15.2
2016-06-28T01:26:52.334Z,15.2
2016-06-28T01:27:02.336Z,15.1
2016-06-28T01:27:12.333Z,15.1
2016-06-28T01:27:22.343Z,15.1
2016-06-28T01:27:32.348Z,15.2
2016-06-28T01:27:42.351Z,15.1
2016-06-28T01:27:52.359Z,15.2
2016-06-28T01:28:02.367Z,15.2
2016-06-28T01:28:12.373Z,15.2
2016-06-28T01:28:22.372Z,15.2
2016-06-28T01:28:32.383Z,15.2
2016-06-28T01:28:42.385Z,15.2
2016-06-28T01:28:52.388Z,15.2
2016-06-28T01:29:02.402Z,15.2
2016-06-28T01:29:12.407Z,15.2
2016-06-28T01:29:22.414Z,15.2
2016-06-28T01:29:32.418Z,15.2
2016-06-28T01:29:42.431Z,15.2
2016-06-28T01:29:52.432Z,15.2
2016-06-28T01:30:02.441Z,15.2
2016-06-28T01:30:12.446Z,15.2
2016-06-28T01:30:22.449Z,15.2
2016-06-28T01:30:32.454Z,15.3
2016-06-28T01:30:42.478Z,15.3
2016-06-28T01:30:52.463Z,15.2
2016-06-28T01:31:02.471Z,15.3
2016-06-28T01:31:12.482Z,15.3
2016-06-28T01:31:22.495Z,15.2
2016-06-28T01:31:32.512Z,15.2
2016-06-28T01:31:42.500Z,15.2
2016-06-28T01:31:52.516Z,15.2
2016-06-28T01:32:02.535Z,15.2
2016-06-28T01:32:12.513Z,15.2
2016-06-28T01:32:22.523Z,15.2
2016-06-28T01:32:32.530Z,15.1
2016-06-28T01:32:42.538Z,15.2
2016-06-28T01:32:52.547Z,15.2
2016-06-28T01:33:02.549Z,15.2
2016-06-28T01:33:12.551Z,15.1
2016-06-28T01:33:22.559Z,15.1
2016-06-28T01:33:32.563Z,15.1
2016-06-28T01:33:42.572Z,15.1
2016-06-28T01:33:52.574Z,15.1
2016-06-28T01:34:02.587Z,15.1
2016-06-28T01:34:12.592Z,15.1
2016-06-28T01:34:22.600Z,15.1
2016-06-28T01:34:32.608Z,15
2016-06-28T01:34:42.618Z,15
2016-06-28T01:34:52.620Z,15.1
2016-06-28T01:35:02.648Z,15.1
2016-06-28T01:35:12.624Z,15.1
2016-06-28T01:35:22.640Z,15.2
2016-06-28T01:35:32.639Z,15.2
2016-06-28T01:35:42.643Z,15.2
2016-06-28T01:35:52.660Z,15.2
2016-06-28T01:36:02.667Z,15.2
2016-06-28T01:36:12.664Z,15.1
2016-06-28T01:36:22.676Z,15.2
2016-06-28T01:36:32.679Z,15.2
2016-06-28T01:36:42.685Z,15.3
2016-06-28T01:36:52.696Z,15.2
2016-06-28T01:37:02.692Z,15.2
2016-06-28T01:37:12.720Z,15.2
2016-06-28T01:37:22.712Z,15.3
2016-06-28T01:37:32.763Z,15.2
2016-06-28T01:37:42.717Z,15.2
2016-06-28T01:37:52.722Z,15.2
2016-06-28T01:38:02.733Z,15.2
2016-06-28T01:38:12.787Z,15.2
2016-06-28T01:38:22.766Z,15.2
2016-06-28T01:38:32.746Z,15.2
2016-06-28T01:38:42.759Z,15.2
2016-06-28T01:38:52.804Z,15.2
2016-06-28T01:39:02.773Z,15.1
2016-06-28T01:39:12.782Z,15.2
2016-06-28T01:39:22.784Z,15.1
2016-06-28T01:39:32.809Z,15.1
2016-06-28T01:39:42.788Z,15.2
2016-06-28T01:39:52.796Z,15.2
2016-06-28T01:40:02.813Z,15.2
2016-06-28T01:40:12.821Z,15.2
2016-06-28T01:40:22.818Z,15.2
2016-06-28T01:40:32.831Z,15.2
2016-06-28T01:40:42.833Z,15.2
2016-06-28T01:40:52.867Z,15.2
2016-06-28T01:41:02.841Z,15.2
2016-06-28T01:41:12.850Z,15.1
2016-06-28T01:41:22.858Z,15.1
2016-06-28T01:41:32.856Z,15.2
2016-06-28T01:41:42.874Z,15.2
2016-06-28T01:41:52.884Z,15.2
2016-06-28T01:42:02.880Z,15.2
2016-06-28T01:42:12.886Z,15.2
2016-06-28T01:42:22.893Z,15.1
2016-06-28T01:42:32.903Z,15.1
2016-06-28T01:42:42.916Z,15.2
2016-06-28T01:42:52.910Z,15.1
2016-06-28T01:43:02.920Z,15.1
2016-06-28T01:43:12.923Z,15.2
2016-06-28T01:43:22.931Z,15.2
2016-06-28T01:43:32.939Z,15.2
2016-06-28T01:43:42.950Z,15.1
2016-06-28T01:43:52.951Z,15.2
2016-06-28T01:44:03.046Z,15.2
2016-06-28T01:44:12.960Z,15.1
2016-06-28T01:44:22.963Z,15.1
2016-06-28T01:44:32.977Z,15.1
2016-06-28T01:44:43.012Z,15.1
2016-06-28T01:44:52.989Z,15.1
2016-06-28T01:45:02.994Z,15.1
2016-06-28T01:45:13.002Z,15.1
2016-06-28T01:45:23.022Z,15.1
2016-06-28T01:45:33.008Z,15
2016-06-28T01:45:43.025Z,15.1
2016-06-28T01:45:53.017Z,15.2
2016-06-28T01:46:03.060Z,15.1
2016-06-28T01:46:13.036Z,15.1
2016-06-28T01:46:23.041Z,15.2
2016-06-28T01:46:33.044Z,15.1
2016-06-28T01:46:43.076Z,15.1
2016-06-28T01:46:53.054Z,15.1
2016-06-28T01:47:03.065Z,15.1
2016-06-28T01:47:13.066Z,15.1
2016-06-28T01:47:23.079Z,15.1
2016-06-28T01:47:33.087Z,15
2016-06-28T01:47:43.092Z,15
2016-06-28T01:47:53.114Z,15.1
2016-06-28T01:48:03.107Z,15.1
2016-06-28T01:48:13.108Z,15.2
2016-06-28T01:48:23.116Z,15.1
2016-06-28T01:48:33.122Z,15.1
2016-06-28T01:48:43.125Z,15.1
2016-06-28T01:48:53.135Z,15.2
2016-06-28T01:49:03.137Z,15.2
2016-06-28T01:49:13.142Z,15.1
2016-06-28T01:49:23.150Z,15.1
2016-06-28T01:49:33.158Z,15.1
2016-06-28T01:49:43.167Z,15.2
2016-06-28T01:49:53.174Z,15.2
2016-06-28T01:50:03.172Z,15.1
2016-06-28T01:50:13.185Z,15.2
2016-06-28T01:50:23.190Z,15.2
2016-06-28T01:50:33.192Z,15.1
2016-06-28T01:50:43.206Z,15.1
2016-06-28T01:50:53.210Z,15.2
2016-06-28T01:51:03.215Z,15.1
2016-06-28T01:51:13.314Z,15.1
2016-06-28T01:51:23.229Z,15.1
2016-06-28T01:51:33.235Z,15.1
2016-06-28T01:51:43.238Z,15.1
2016-06-28T01:51:53.326Z,15
2016-06-28T01:52:03.256Z,15
2016-06-28T01:52:13.260Z,15.1
2016-06-28T01:52:23.266Z,15.1
2016-06-28T01:52:33.339Z,15.1
2016-06-28T01:52:43.280Z,15.1
2016-06-28T01:52:53.283Z,15.1
2016-06-28T01:53:03.286Z,15.1
2016-06-28T01:53:13.334Z,15.1
2016-06-28T01:53:23.302Z,15.1
2016-06-28T01:53:33.313Z,15.1
2016-06-28T01:53:43.312Z,15.1
2016-06-28T01:53:53.323Z,15.1
2016-06-28T01:54:03.327Z,15.1
2016-06-28T01:54:13.329Z,15.1
2016-06-28T01:54:23.333Z,15.1
2016-06-28T01:54:33.346Z,15.1
2016-06-28T01:54:43.354Z,15.2
2016-06-28T01:54:53.352Z,15.1
2016-06-28T01:55:03.363Z,15.1
2016-06-28T01:55:13.366Z,15.1
2016-06-28T01:55:23.377Z,15.2
2016-06-28T01:55:33.385Z,15.2
2016-06-28T01:55:43.397Z,15.2
2016-06-28T01:55:53.395Z,15.2
2016-06-28T01:56:03.405Z,15.1
2016-06-28T01:56:13.403Z,15.1
2016-06-28T01:56:23.410Z,15.2
2016-06-28T01:56:33.417Z,15.2
2016-06-28T01:56:43.424Z,15.2
2016-06-28T01:56:53.439Z,15.1
2016-06-28T01:57:03.431Z,15.1
2016-06-28T01:57:13.442Z,15.1
2016-06-28T01:57:23.453Z,15.1
2016-06-28T01:57:33.452Z,15.1
2016-06-28T01:57:43.460Z,15.1
2016-06-28T01:57:53.470Z,15.2
2016-06-28T01:58:03.473Z,15.1
2016-06-28T01:58:13.486Z,15.1
2016-06-28T01:58:23.556Z,15.1
2016-06-28T01:58:33.494Z,15.1
2016-06-28T01:58:43.501Z,15
2016-06-28T01:58:53.509Z,15.1
2016-06-28T01:59:03.554Z,15.2
2016-06-28T01:59:13.515Z,15.1
2016-06-28T01:59:23.524Z,15.2
2016-06-28T01:59:33.533Z,15.2
2016-06-28T01:59:43.537Z,15.2
2016-06-28T01:59:53.537Z,15.2
2016-06-28T02:00:03.552Z,15.2
2016-06-28T02:00:13.552Z,15.1
2016-06-28T02:00:23.614Z,15.1
2016-06-28T02:00:33.562Z,15.2
2016-06-28T02:00:43.575Z,15.2
2016-06-28T02:00:53.579Z,15.2
2016-06-28T02:01:03.599Z,15.2
2016-06-28T02:01:13.592Z,15.2
2016-06-28T02:01:23.591Z,15.2
2016-06-28T02:01:33.606Z,15.2
2016-06-28T02:01:43.613Z,15.2
2016-06-28T02:01:53.616Z,15.2
2016-06-28T02:02:03.619Z,15.2
2016-06-28T02:02:13.627Z,15.2
2016-06-28T02:02:23.637Z,15.1
2016-06-28T02:02:33.639Z,15.2
2016-06-28T02:02:43.641Z,15.2
2016-06-28T02:02:53.654Z,15.2
2016-06-28T02:03:03.663Z,15.2
2016-06-28T02:03:13.661Z,15.2
2016-06-28T02:03:23.689Z,15.2
2016-06-28T02:03:33.703Z,15.2
2016-06-28T02:03:43.682Z,15.2
2016-06-28T02:03:53.704Z,15.1
2016-06-28T02:04:03.697Z,15.2
2016-06-28T02:04:13.699Z,15.2
2016-06-28T02:04:23.710Z,15.2
2016-06-28T02:04:33.719Z,15.1
2016-06-28T02:04:43.719Z,15
2016-06-28T02:04:53.728Z,15.1
2016-06-28T02:05:03.734Z,15.2
2016-06-28T02:05:13.737Z,15
2016-06-28T02:05:23.751Z,14.9
2016-06-28T02:05:33.795Z,14.8
2016-06-28T02:05:43.758Z,14.8
2016-06-28T02:05:53.759Z,14.9
2016-06-28T02:06:03.786Z,14.9
2016-06-28T02:06:13.780Z,15
2016-06-28T02:06:23.786Z,14.9
2016-06-28T02:06:33.785Z,15
2016-06-28T02:06:43.794Z,14.9
2016-06-28T02:06:53.798Z,15
2016-06-28T02:07:03.807Z,15.2
2016-06-28T02:07:13.820Z,15.1
2016-06-28T02:07:23.814Z,15.2
2016-06-28T02:07:33.834Z,15.2
2016-06-28T02:07:43.827Z,15.2
2016-06-28T02:07:53.835Z,15.2
2016-06-28T02:08:03.842Z,15.2
2016-06-28T02:08:13.851Z,15.2
2016-06-28T02:08:23.857Z,15.2
2016-06-28T02:08:33.862Z,15.2
2016-06-28T02:08:43.862Z,15.2
2016-06-28T02:08:53.876Z,15.2
2016-06-28T02:09:03.880Z,15.2
2016-06-28T02:09:13.886Z,15.2
2016-06-28T02:09:23.908Z,15.2
2016-06-28T02:09:33.897Z,15.2
2016-06-28T02:09:43.957Z,15.2
2016-06-28T02:09:53.910Z,15.2
2016-06-28T02:10:03.917Z,15.1
2016-06-28T02:10:13.948Z,15.1
2016-06-28T02:10:23.930Z,15.1
2016-06-28T02:10:33.933Z,15.2
2016-06-28T02:10:43.943Z,15.1
2016-06-28T02:10:53.949Z,15.1
2016-06-28T02:11:03.951Z,15.1
2016-06-28T02:11:13.958Z,15.1
2016-06-28T02:11:23.969Z,15.1
2016-06-28T02:11:33.976Z,15.2
2016-06-28T02:11:43.979Z,15.2
2016-06-28T02:11:53.989Z,15.1
2016-06-28T02:12:03.993Z,15.1
2016-06-28T02:12:14.000Z,15.1
2016-06-28T02:12:24.002Z,15.1
2016-06-28T02:12:34.006Z,15.1
2016-06-28T02:12:44.013Z,15.1
2016-06-28T02:12:54.023Z,15.1
2016-06-28T02:13:04.029Z,15
2016-06-28T02:13:14.041Z,15.1
2016-06-28T02:13:24.044Z,15